Time;durP1;ratioP1;P1;durP2;ratioP2;P2;SDS_P1;SDS_P2;PMS_P1;PMS_P2;Temp;Humidity;BMP_temperature;BMP_pressure;BME280_temperature;BME280_humidity;BME280_pressure;Samples;Min_cycle;Max_cycle;Signal;HPM_P1;HPM_P2
2021/03/19 00:00:43;;;;;;;;;;;;;;;5.72;86.25;101478.66;5093679;28;19998;-63
2021/03/19 00:03:10;;;;;;;;;;;;;;;5.67;86.30;101487.66;5093686;28;20282;-69
2021/03/19 00:05:44;;;;;;;;;;;;;;;5.92;85.91;101488.94;5091015;28;20275;-64
2021/03/19 00:08:22;;;;;;;;;;;;;;;5.75;86.52;101487.16;5092888;28;20347;-61
2021/03/19 00:11:03;;;;;;;;;;;;;;;5.79;86.67;101478.44;5077159;28;19927;-63
2021/03/19 00:13:30;;;;;;;;;;;;;;;5.76;87.26;101490.72;5090789;28;20285;-67
2021/03/19 00:15:56;;;;;;;;;;;;;;;5.88;86.92;101496.00;5091677;28;19920;-68
2021/03/19 00:18:43;;;;;;;;;;;;;;;6.07;85.57;101487.09;5093268;28;19931;-67
2021/03/19 00:21:21;;;;;;;;;;;;;;;5.88;85.02;101482.34;5092656;28;19931;-62
2021/03/19 00:23:53;;;;;;;;;;;;;;;5.80;85.10;101478.19;5091800;28;20347;-65
2021/03/19 00:26:24;;;;;;;;;;;;;;;5.90;85.41;101477.44;5093189;28;19920;-62
2021/03/19 00:28:56;;;;;;;;;;;;;;;5.94;85.32;101478.56;5090554;28;20264;-62
2021/03/19 00:31:23;;;;;;;;;;;;;;;5.90;85.85;101474.69;5075398;28;20270;-68
2021/03/19 00:33:53;;;;;;;;;;;;;;;5.75;85.81;101476.22;5092177;28;20377;-67
2021/03/19 00:36:24;;;;;;;;;;;;;;;5.71;86.45;101474.28;5076250;28;19927;-66
2021/03/19 00:38:52;;;;;;;;;;;;;;;5.65;86.93;101453.44;5092982;28;19920;-64
2021/03/19 00:41:21;;;;;;;;;;;;;;;5.83;86.81;101452.22;5074677;28;19927;-65
2021/03/19 00:43:48;;;;;;;;;;;;;;;6.06;86.09;101441.72;5075405;28;19927;-67
2021/03/19 00:46:24;;;;;;;;;;;;;;;6.02;85.41;101442.50;5093412;28;19927;-63
2021/03/19 00:48:52;;;;;;;;;;;;;;;5.66;86.28;101430.53;5097073;28;19919;-63
2021/03/19 00:51:22;;;;;;;;;;;;;;;5.85;85.94;101420.81;5080475;28;19919;-69
2021/03/19 00:53:52;;;;;;;;;;;;;;;5.72;84.90;101437.66;5097468;28;19919;-62
2021/03/19 00:56:21;;;;;;;;;;;;;;;5.58;85.55;101439.19;5097308;28;19920;-64
2021/03/19 00:58:48;;;;;;;;;;;;;;;5.75;84.28;101440.69;5096048;28;19927;-64
2021/03/19 01:01:21;;;;;;;;;;;;;;;5.81;84.23;101433.34;5078858;28;19920;-65
2021/03/19 01:03:48;;;;;;;;;;;;;;;5.80;84.91;101442.63;5079374;28;19931;-71
2021/03/19 01:06:15;;;;;;;;;;;;;;;5.96;84.16;101443.56;5097247;28;19927;-64
2021/03/19 01:08:42;;;;;;;;;;;;;;;5.99;84.08;101430.19;5096655;28;19931;-73
2021/03/19 01:11:12;;;;;;;;;;;;;;;5.70;85.53;101435.19;5096969;28;19920;-60
2021/03/19 01:13:39;;;;;;;;;;;;;;;5.67;85.55;101440.34;5096456;28;19999;-68
2021/03/19 01:16:06;;;;;;;;;;;;;;;5.46;85.93;101455.78;5096743;28;19927;-66
2021/03/19 01:18:33;;;;;;;;;;;;;;;5.43;87.40;101459.06;5094742;28;20281;-69
2021/03/19 01:21:13;;;;;;;;;;;;;;;5.53;87.04;101455.56;5096786;28;19934;-65
2021/03/19 01:23:42;;;;;;;;;;;;;;;5.71;86.63;101458.72;5078537;28;19928;-65
2021/03/19 01:26:12;;;;;;;;;;;;;;;5.95;86.07;101470.09;5095737;28;19920;-65
2021/03/19 01:28:39;;;;;;;;;;;;;;;5.88;85.50;101458.56;5095406;28;19920;-62
2021/03/19 01:31:18;;;;;;;;;;;;;;;5.84;85.58;101462.91;5080414;28;19920;-66
2021/03/19 01:33:45;;;;;;;;;;;;;;;5.93;85.98;101455.84;5078235;28;19927;-69
2021/03/19 01:36:12;;;;;;;;;;;;;;;5.95;85.35;101464.63;5061157;28;19920;-69
2021/03/19 01:38:41;;;;;;;;;;;;;;;5.95;86.26;101469.25;5095784;28;19928;-71
2021/03/19 01:41:08;;;;;;;;;;;;;;;5.92;85.64;101459.69;5096359;28;19927;-70
2021/03/19 01:43:37;;;;;;;;;;;;;;;5.82;85.98;101451.41;5096643;28;19927;-67
2021/03/19 01:46:25;;;;;;;;;;;;;;;6.03;85.75;101460.56;5091950;28;19920;-68
2021/03/19 01:49:25;;;;;;;;;;;;;;;6.05;85.34;101455.66;5093513;28;19920;-64
2021/03/19 01:52:18;;;;;;;;;;;;;;;6.07;84.20;101456.19;5095802;28;19924;-63
2021/03/19 01:55:11;;;;;;;;;;;;;;;5.97;84.75;101453.41;5095895;28;19927;-66
2021/03/19 01:57:59;;;;;;;;;;;;;;;6.17;84.35;101451.59;5094611;28;19920;-65
2021/03/19 02:00:47;;;;;;;;;;;;;;;6.02;84.54;101447.97;5095969;28;20273;-68
2021/03/19 02:03:33;;;;;;;;;;;;;;;6.15;84.55;101448.34;5095339;28;19920;-71
2021/03/19 02:06:24;;;;;;;;;;;;;;;5.84;84.67;101456.63;5095594;28;19920;-71
2021/03/19 02:09:10;;;;;;;;;;;;;;;5.91;84.43;101452.56;5077172;28;19920;-68
2021/03/19 02:11:55;;;;;;;;;;;;;;;5.92;84.65;101440.56;5095016;28;19920;-72
2021/03/19 02:14:40;;;;;;;;;;;;;;;5.97;83.63;101454.25;5094941;28;19920;-71
2021/03/19 02:21:48;;;;;;;;;;;;;;;5.86;83.33;101438.06;5094778;28;20397;-63
2021/03/19 02:24:33;;;;;;;;;;;;;;;6.24;82.38;101435.78;5094636;28;19995;-64
2021/03/19 02:27:24;;;;;;;;;;;;;;;6.02;82.19;101437.88;5094972;28;19920;-64
2021/03/19 02:30:30;;;;;;;;;;;;;;;5.73;83.39;101425.66;5095359;28;19920;-63
2021/03/19 02:33:00;;;;;;;;;;;;;;;5.94;83.09;101427.44;5093556;28;19920;-64
2021/03/19 02:35:30;;;;;;;;;;;;;;;5.93;83.59;101416.78;5094695;28;19931;-60
2021/03/19 02:38:03;;;;;;;;;;;;;;;5.77;83.40;101404.06;5095043;28;20372;-62
2021/03/19 02:40:30;;;;;;;;;;;;;;;5.80;84.16;101398.06;5076586;28;20336;-61
2021/03/19 02:42:57;;;;;;;;;;;;;;;6.05;83.47;101393.56;5077025;28;20305;-62
2021/03/19 02:45:23;;;;;;;;;;;;;;;6.10;82.64;101390.06;5095157;28;19927;-62
2021/03/19 02:47:50;;;;;;;;;;;;;;;5.70;83.67;101396.13;5060040;28;19920;-62
2021/03/19 02:50:20;;;;;;;;;;;;;;;5.89;83.58;101399.25;5094717;28;19947;-64
2021/03/19 02:52:49;;;;;;;;;;;;;;;5.66;83.87;101384.91;5094776;28;20030;-60
2021/03/19 02:55:17;;;;;;;;;;;;;;;5.75;83.73;101391.47;5095119;28;19920;-64
2021/03/19 02:57:44;;;;;;;;;;;;;;;5.61;83.77;101387.56;5076454;28;20362;-63
2021/03/19 03:00:14;;;;;;;;;;;;;;;5.80;82.98;101374.31;5094752;28;19920;-63
2021/03/19 03:02:41;;;;;;;;;;;;;;;5.71;83.15;101381.34;5077072;28;19927;-63
2021/03/19 03:05:09;;;;;;;;;;;;;;;5.71;82.77;101382.19;5094706;28;20286;-65
2021/03/19 03:07:36;;;;;;;;;;;;;;;5.77;82.11;101385.75;5042550;28;19943;-64
2021/03/19 03:10:27;;;;;;;;;;;;;;;5.88;81.59;101387.47;5089737;28;19920;-62
2021/03/19 03:12:54;;;;;;;;;;;;;;;5.77;82.44;101390.41;5075795;28;20382;-66
2021/03/19 03:15:21;;;;;;;;;;;;;;;5.83;82.02;101386.63;5094300;28;20409;-66
2021/03/19 03:17:48;;;;;;;;;;;;;;;5.71;81.37;101375.88;5076558;28;19920;-64
2021/03/19 03:20:17;;;;;;;;;;;;;;;5.62;81.68;101388.41;5093817;28;20370;-66
2021/03/19 03:22:44;;;;;;;;;;;;;;;5.58;82.90;101401.78;5093624;28;19920;-68
2021/03/19 03:25:15;;;;;;;;;;;;;;;5.67;82.29;101396.63;5093501;28;19920;-63
2021/03/19 03:27:45;;;;;;;;;;;;;;;5.93;82.09;101408.56;5076163;28;19927;-65
2021/03/19 03:30:29;;;;;;;;;;;;;;;5.72;82.13;101413.06;5063164;28;19927;-62
2021/03/19 03:32:56;;;;;;;;;;;;;;;5.69;81.25;101408.13;5059716;28;19920;-64
2021/03/19 03:35:26;;;;;;;;;;;;;;;5.73;80.95;101418.28;5094522;28;19920;-66
2021/03/19 03:38:00;;;;;;;;;;;;;;;5.69;81.19;101419.06;5074090;28;19934;-63
2021/03/19 03:40:32;;;;;;;;;;;;;;;5.37;81.79;101410.13;5094085;28;19927;-65
2021/03/19 03:42:59;;;;;;;;;;;;;;;5.56;82.00;101419.53;5076333;28;19919;-68
2021/03/19 03:45:25;;;;;;;;;;;;;;;5.60;80.67;101421.47;5094721;28;20454;-66
2021/03/19 03:48:02;;;;;;;;;;;;;;;5.72;80.03;101426.72;5094440;28;19920;-63
2021/03/19 03:50:30;;;;;;;;;;;;;;;5.82;79.02;101426.81;5076776;28;20405;-69
2021/03/19 03:53:05;;;;;;;;;;;;;;;5.88;79.33;101424.91;5061315;28;19934;-66
2021/03/19 03:55:39;;;;;;;;;;;;;;;5.69;80.10;101417.16;5093352;28;19920;-64
2021/03/19 03:58:06;;;;;;;;;;;;;;;5.64;79.95;101424.50;5075881;28;19920;-70
2021/03/19 04:00:33;;;;;;;;;;;;;;;5.62;80.15;101432.13;5093581;28;19927;-66
2021/03/19 04:03:00;;;;;;;;;;;;;;;5.63;79.70;101439.25;5093399;28;19924;-68
2021/03/19 04:05:30;;;;;;;;;;;;;;;5.53;80.81;101429.06;5093254;28;19927;-61
2021/03/19 04:07:57;;;;;;;;;;;;;;;5.42;80.77;101430.06;5075273;28;19927;-67
2021/03/19 04:10:24;;;;;;;;;;;;;;;5.48;81.09;101436.41;5075642;28;19920;-64
2021/03/19 04:12:50;;;;;;;;;;;;;;;5.57;79.73;101437.56;5093956;28;19924;-61
2021/03/19 04:15:18;;;;;;;;;;;;;;;5.68;79.55;101440.09;5074983;28;19919;-63
2021/03/19 04:17:46;;;;;;;;;;;;;;;5.73;79.20;101436.56;5093524;28;19920;-66
2021/03/19 04:20:15;;;;;;;;;;;;;;;5.64;78.84;101433.53;5075184;28;19920;-64
2021/03/19 04:22:44;;;;;;;;;;;;;;;5.61;79.33;101442.22;5093006;28;19943;-62
2021/03/19 04:25:11;;;;;;;;;;;;;;;5.75;79.25;101437.16;5092723;28;19931;-61
2021/03/19 04:27:40;;;;;;;;;;;;;;;5.76;78.04;101436.03;5092684;28;19920;-64
2021/03/19 04:30:15;;;;;;;;;;;;;;;5.77;78.69;101440.41;5058893;28;19920;-66
2021/03/19 04:32:48;;;;;;;;;;;;;;;5.45;79.39;101431.47;5075134;28;19927;-64
2021/03/19 04:35:16;;;;;;;;;;;;;;;5.53;79.92;101440.00;5058353;28;19927;-68
2021/03/19 04:37:42;;;;;;;;;;;;;;;5.61;79.03;101452.34;5074667;28;19924;-65
2021/03/19 04:40:10;;;;;;;;;;;;;;;5.47;79.57;101437.50;5092885;28;19920;-65
2021/03/19 04:42:36;;;;;;;;;;;;;;;5.44;79.83;101447.03;5092908;28;20386;-64
2021/03/19 04:45:04;;;;;;;;;;;;;;;5.56;79.93;101446.84;5093107;28;19920;-67
2021/03/19 04:47:31;;;;;;;;;;;;;;;5.45;79.79;101458.78;5075140;28;19931;-65
2021/03/19 04:49:58;;;;;;;;;;;;;;;5.38;79.71;101447.25;5075252;28;20370;-66
2021/03/19 04:52:25;;;;;;;;;;;;;;;5.38;80.07;101437.16;5092965;28;19920;-64
2021/03/19 04:54:51;;;;;;;;;;;;;;;5.27;79.91;101443.63;5092867;28;20278;-68
2021/03/19 04:57:24;;;;;;;;;;;;;;;5.25;80.52;101448.50;5093032;28;19927;-68
2021/03/19 04:59:50;;;;;;;;;;;;;;;5.24;80.25;101470.63;5092812;28;19924;-65
2021/03/19 05:02:17;;;;;;;;;;;;;;;5.22;79.90;101468.16;5092883;28;20286;-69
2021/03/19 05:09:02;;;;;;;;;;;;;;;5.34;79.33;101468.81;5092222;28;19930;-67
2021/03/19 05:11:28;;;;;;;;;;;;;;;5.42;78.94;101464.78;5108645;28;19927;-72
2021/03/19 05:13:56;;;;;;;;;;;;;;;5.53;79.04;101463.75;5091596;28;19919;-66
2021/03/19 05:16:23;;;;;;;;;;;;;;;5.45;78.78;101464.25;5074675;28;19920;-64
2021/03/19 05:18:49;;;;;;;;;;;;;;;5.36;78.18;101465.81;5074162;28;19927;-65
2021/03/19 05:21:16;;;;;;;;;;;;;;;5.15;76.95;101458.53;5091984;28;19927;-69
2021/03/19 05:23:44;;;;;;;;;;;;;;;5.19;76.75;101456.94;5074350;28;19920;-65
2021/03/19 05:26:11;;;;;;;;;;;;;;;5.24;76.40;101467.88;5093007;28;20306;-69
2021/03/19 05:28:41;;;;;;;;;;;;;;;5.31;75.55;101473.97;5092595;28;19931;-71
2021/03/19 05:31:08;;;;;;;;;;;;;;;5.30;75.71;101461.41;5092972;28;19920;-64
2021/03/19 05:33:43;;;;;;;;;;;;;;;5.32;75.80;101473.69;5095972;28;19920;-66
2021/03/19 05:36:10;;;;;;;;;;;;;;;5.42;75.40;101481.16;5077963;28;19927;-66
2021/03/19 05:38:37;;;;;;;;;;;;;;;5.30;75.30;101472.34;5078707;28;19943;-65
2021/03/19 05:41:04;;;;;;;;;;;;;;;5.23;75.55;101472.53;5096264;28;19920;-68
2021/03/19 05:43:33;;;;;;;;;;;;;;;5.36;75.24;101472.09;5096050;28;20298;-65
2021/03/19 05:46:11;;;;;;;;;;;;;;;5.04;75.52;101481.38;5062057;28;19924;-64
2021/03/19 05:48:50;;;;;;;;;;;;;;;5.07;75.63;101478.94;5079784;28;19927;-65
2021/03/19 05:51:34;;;;;;;;;;;;;;;5.30;75.10;101484.06;5096059;28;19920;-65
2021/03/19 05:54:10;;;;;;;;;;;;;;;5.43;74.45;101491.84;5088561;28;19927;-66
2021/03/19 05:56:37;;;;;;;;;;;;;;;5.21;74.78;101490.28;5077694;28;19934;-62
2021/03/19 05:59:04;;;;;;;;;;;;;;;5.11;74.46;101498.38;5096279;28;19927;-67
2021/03/19 06:01:31;;;;;;;;;;;;;;;5.06;75.43;101504.59;5076963;28;19931;-64
2021/03/19 06:04:01;;;;;;;;;;;;;;;5.25;74.62;101508.59;5093552;28;19923;-68
2021/03/19 06:06:44;;;;;;;;;;;;;;;5.07;74.03;101519.06;5095948;28;19930;-66
2021/03/19 06:09:24;;;;;;;;;;;;;;;5.00;73.58;101505.63;5096013;28;19924;-68
2021/03/19 06:11:52;;;;;;;;;;;;;;;4.76;74.42;101514.38;5096031;28;20009;-65
2021/03/19 06:14:18;;;;;;;;;;;;;;;4.86;74.48;101519.94;5077330;28;19920;-69
2021/03/19 06:16:46;;;;;;;;;;;;;;;4.68;74.56;101528.44;5095561;28;20374;-64
2021/03/19 06:19:28;;;;;;;;;;;;;;;4.73;74.96;101521.16;5096527;28;19927;-67
2021/03/19 06:22:05;;;;;;;;;;;;;;;4.65;74.46;101531.69;5097573;28;19986;-71
2021/03/19 06:24:34;;;;;;;;;;;;;;;4.70;74.61;101526.28;5097064;28;19920;-64
2021/03/19 06:27:19;;;;;;;;;;;;;;;4.72;73.80;101535.06;5079086;28;19924;-63
2021/03/19 06:29:48;;;;;;;;;;;;;;;4.53;74.45;101535.38;5112219;28;19919;-67
2021/03/19 06:32:21;;;;;;;;;;;;;;;4.71;74.29;101536.94;5077468;28;19927;-67
2021/03/19 06:34:54;;;;;;;;;;;;;;;4.68;73.92;101539.34;5093668;28;20416;-63
2021/03/19 06:37:25;;;;;;;;;;;;;;;4.77;73.78;101548.75;5095547;28;19920;-62
2021/03/19 06:39:54;;;;;;;;;;;;;;;4.78;73.55;101543.03;5077315;28;19924;-65
2021/03/19 06:42:20;;;;;;;;;;;;;;;4.88;73.23;101550.53;5077312;28;19927;-62
2021/03/19 06:45:06;;;;;;;;;;;;;;;4.83;72.67;101554.00;5077024;28;19920;-64
2021/03/19 06:47:44;;;;;;;;;;;;;;;4.71;72.61;101561.50;5110498;28;19927;-66
2021/03/19 06:50:23;;;;;;;;;;;;;;;4.69;72.87;101560.13;5110951;28;19927;-65
2021/03/19 06:53:22;;;;;;;;;;;;;;;4.52;72.30;101558.28;5109439;28;20385;-62
2021/03/19 06:56:14;;;;;;;;;;;;;;;4.43;73.11;101562.50;5094861;28;19927;-65
2021/03/19 06:58:45;;;;;;;;;;;;;;;4.44;72.30;101577.81;5094954;28;19927;-66
2021/03/19 07:01:29;;;;;;;;;;;;;;;4.37;72.13;101559.97;5110364;28;20358;-68
2021/03/19 07:08:18;;;;;;;;;;;;;;;4.52;71.84;101569.19;5094745;28;19923;-66
2021/03/19 07:11:04;;;;;;;;;;;;;;;4.67;71.62;101578.66;5077205;28;19927;-67
2021/03/19 07:13:46;;;;;;;;;;;;;;;4.92;71.19;101578.94;5094776;28;19920;-71
2021/03/19 07:16:14;;;;;;;;;;;;;;;4.65;71.73;101598.00;5076139;28;19927;-65
2021/03/19 07:18:47;;;;;;;;;;;;;;;4.66;71.42;101598.81;5077024;28;19920;-66
2021/03/19 07:25:28;;;;;;;;;;;;;;;4.65;71.96;101611.66;5094453;28;20385;-66
2021/03/19 07:28:13;;;;;;;;;;;;;;;4.51;72.52;101616.66;5076270;28;19920;-65
2021/03/19 07:30:45;;;;;;;;;;;;;;;4.64;72.48;101625.56;5094561;28;19935;-73
2021/03/19 07:33:17;;;;;;;;;;;;;;;4.59;72.36;101629.84;5094024;28;19924;-69
2021/03/19 07:35:49;;;;;;;;;;;;;;;4.69;72.30;101623.69;5075580;28;19920;-69
2021/03/19 07:38:25;;;;;;;;;;;;;;;4.73;72.21;101635.75;5076271;28;19920;-65
2021/03/19 07:41:00;;;;;;;;;;;;;;;4.90;71.76;101639.25;5058545;28;19946;-65
2021/03/19 07:43:46;;;;;;;;;;;;;;;4.63;71.59;101640.25;5075829;28;19927;-68
2021/03/19 07:46:33;;;;;;;;;;;;;;;4.74;71.90;101631.13;5093798;28;19927;-59
2021/03/19 07:49:04;;;;;;;;;;;;;;;4.76;72.18;101651.63;5084550;28;19920;-59
2021/03/19 07:51:50;;;;;;;;;;;;;;;4.79;71.80;101650.31;5093336;28;20321;-68
2021/03/19 07:54:21;;;;;;;;;;;;;;;4.48;72.61;101649.88;5092860;28;20282;-61
2021/03/19 07:56:51;;;;;;;;;;;;;;;4.63;72.55;101673.00;5075778;28;19919;-63
2021/03/19 07:59:28;;;;;;;;;;;;;;;4.75;72.11;101669.09;5093106;28;19927;-63
2021/03/19 08:02:03;;;;;;;;;;;;;;;4.71;71.81;101681.56;5074826;28;19920;-60
2021/03/19 08:08:47;;;;;;;;;;;;;;;4.74;72.61;101666.63;5074763;28;19923;-62
2021/03/19 08:11:14;;;;;;;;;;;;;;;4.47;72.64;101659.13;5075058;28;19920;-68
2021/03/19 08:14:04;;;;;;;;;;;;;;;4.67;72.18;101657.78;5093463;28;19919;-67
2021/03/19 08:16:46;;;;;;;;;;;;;;;4.70;72.46;101665.47;5076166;28;19920;-65
2021/03/19 08:19:13;;;;;;;;;;;;;;;4.82;72.43;101664.28;5092446;28;19920;-64
2021/03/19 08:25:52;;;;;;;;;;;;;;;4.66;72.64;101675.22;5093811;28;19916;-62
2021/03/19 08:28:37;;;;;;;;;;;;;;;4.92;71.75;101671.75;5093111;28;20282;-61
2021/03/19 08:31:04;;;;;;;;;;;;;;;4.92;71.47;101667.13;5093458;28;19920;-65
2021/03/19 08:33:49;;;;;;;;;;;;;;;4.84;71.13;101680.38;5092699;28;20277;-71
2021/03/19 08:36:35;;;;;;;;;;;;;;;4.87;71.54;101674.41;5093165;28;19927;-60
2021/03/19 08:39:11;;;;;;;;;;;;;;;4.71;71.49;101689.75;5092850;28;20361;-56
2021/03/19 08:41:38;;;;;;;;;;;;;;;4.95;71.21;101684.91;5093281;28;19927;-63
2021/03/19 08:44:06;;;;;;;;;;;;;;;5.00;70.21;101695.91;5081711;28;19920;-60
2021/03/19 08:46:33;;;;;;;;;;;;;;;4.92;70.56;101688.13;5074740;28;20392;-70
2021/03/19 08:49:02;;;;;;;;;;;;;;;4.78;70.73;101705.97;5093047;28;19920;-63
2021/03/19 08:51:30;;;;;;;;;;;;;;;5.18;70.14;101701.88;5074706;28;19931;-60
2021/03/19 08:54:11;;;;;;;;;;;;;;;5.18;69.39;101701.88;5092779;28;19939;-60
2021/03/19 08:57:15;;;;;;;;;;;;;;;5.31;69.13;101701.50;5093096;28;19920;-61
2021/03/19 08:59:47;;;;;;;;;;;;;;;5.64;68.55;101703.25;5030691;28;19921;-60
2021/03/19 09:02:32;;;;;;;;;;;;;;;5.86;67.27;101695.84;5037488;28;19924;-60
2021/03/19 09:05:00;;;;;;;;;;;;;;;5.79;67.06;101691.66;5030537;28;20386;-65
2021/03/19 09:07:36;;;;;;;;;;;;;;;5.48;67.35;101687.75;5015368;28;20412;-66
2021/03/19 09:10:12;;;;;;;;;;;;;;;5.45;67.21;101699.22;5034601;28;19925;-67
2021/03/19 09:12:57;;;;;;;;;;;;;;;5.42;66.90;101710.66;5034366;28;20372;-66
2021/03/19 09:15:37;;;;;;;;;;;;;;;5.27;66.93;101707.72;5017097;28;19993;-67
2021/03/19 09:18:07;;;;;;;;;;;;;;;5.32;65.91;101705.03;5034522;28;20319;-64
2021/03/19 09:20:34;;;;;;;;;;;;;;;5.39;67.06;101711.13;5034050;28;19921;-67
2021/03/19 09:23:04;;;;;;;;;;;;;;;5.51;66.24;101709.09;5017604;28;19928;-69
2021/03/19 09:25:37;;;;;;;;;;;;;;;5.49;66.05;101728.47;5033670;28;19957;-67
2021/03/19 09:28:10;;;;;;;;;;;;;;;5.29;66.60;101721.94;5034749;28;20506;-71
2021/03/19 09:30:46;;;;;;;;;;;;;;;5.52;65.90;101722.53;5034404;28;20295;-67
2021/03/19 09:33:31;;;;;;;;;;;;;;;5.59;65.13;101722.31;5034360;28;19925;-66
2021/03/19 09:40:37;;;;;;;;;;;;;;;5.54;63.79;101722.25;5095905;28;19923;-70
2021/03/19 09:43:04;;;;;;;;;;;;;;;5.63;63.54;101731.66;5095729;28;19942;-67
2021/03/19 09:45:33;;;;;;;;;;;;;;;5.67;62.62;101732.78;5095472;28;19943;-66
2021/03/19 09:48:17;;;;;;;;;;;;;;;5.67;62.29;101735.53;5096315;28;19924;-72
2021/03/19 09:50:54;;;;;;;;;;;;;;;5.84;62.50;101739.00;5079662;28;19923;-67
2021/03/19 09:57:39;;;;;;;;;;;;;;;5.87;63.17;101735.78;5095204;28;19923;-66
2021/03/19 10:00:17;;;;;;;;;;;;;;;5.91;62.45;101749.78;5095764;28;19920;-62
2021/03/19 10:02:50;;;;;;;;;;;;;;;6.13;61.67;101748.63;5095086;28;19920;-63
2021/03/19 10:05:22;;;;;;;;;;;;;;;6.40;61.27;101745.84;5095437;28;19920;-66
2021/03/19 10:07:53;;;;;;;;;;;;;;;6.44;59.14;101758.75;5077251;28;19927;-67
2021/03/19 10:10:25;;;;;;;;;;;;;;;6.27;58.36;101758.06;5095564;28;19920;-64
2021/03/19 10:13:06;;;;;;;;;;;;;;;6.26;57.78;101747.38;5078383;28;19920;-66
2021/03/19 10:15:36;;;;;;;;;;;;;;;6.05;58.55;101757.28;5074917;28;19920;-70
2021/03/19 10:18:04;;;;;;;;;;;;;;;5.99;59.74;101747.41;5076875;28;20393;-64
2021/03/19 10:20:40;;;;;;;;;;;;;;;6.03;59.39;101761.38;5095156;28;20282;-64
2021/03/19 10:23:10;;;;;;;;;;;;;;;5.86;58.76;101752.47;5094996;28;19920;-57
2021/03/19 10:25:37;;;;;;;;;;;;;;;5.93;58.85;101762.09;5094165;28;20385;-62
2021/03/19 10:28:26;;;;;;;;;;;;;;;6.17;58.63;101766.16;5111034;28;19920;-59
2021/03/19 10:31:23;;;;;;;;;;;;;;;6.11;58.64;101753.53;5061710;28;20370;-62
2021/03/19 10:34:03;;;;;;;;;;;;;;;6.46;57.09;101767.53;5092114;28;20393;-67
2021/03/19 10:40:37;;;;;;;;;;;;;;;6.39;56.84;101768.84;5094678;28;19939;-68
2021/03/19 10:43:10;;;;;;;;;;;;;;;6.45;57.01;101759.59;5077113;28;19920;-61
2021/03/19 10:45:52;;;;;;;;;;;;;;;6.60;56.00;101763.28;5077672;28;20393;-72
2021/03/19 10:48:31;;;;;;;;;;;;;;;6.73;56.24;101771.03;5094132;28;19920;-68
2021/03/19 10:51:02;;;;;;;;;;;;;;;6.79;55.44;101778.22;5077162;28;20393;-69
2021/03/19 10:58:27;;;;;;;;;;;;;;;6.55;57.27;101782.41;5094845;28;20285;-65
2021/03/19 11:01:48;;;;;;;;;;;;;;;6.73;57.04;101775.69;5091740;28;20015;-66
2021/03/19 11:04:25;;;;;;;;;;;;;;;6.90;56.85;101792.81;5032661;28;19921;-65
2021/03/19 11:07:39;;;;;;;;;;;;;;;7.13;56.21;101775.16;5029556;28;19928;-67
2021/03/19 11:10:21;;;;;;;;;;;;;;;6.82;55.38;101806.97;5012186;28;19929;-67
2021/03/19 11:12:51;;;;;;;;;;;;;;;6.79;55.16;101775.47;4996081;28;20413;-74
2021/03/19 11:15:21;;;;;;;;;;;;;;;6.85;54.76;101779.88;4997321;28;20396;-73
2021/03/19 11:18:08;;;;;;;;;;;;;;;6.99;55.12;101790.41;4997852;28;20324;-74
2021/03/19 11:20:57;;;;;;;;;;;;;;;6.98;54.45;101797.78;4997894;28;19921;-70
2021/03/19 11:23:37;;;;;;;;;;;;;;;6.74;54.19;101789.13;4997024;28;19929;-67
2021/03/19 11:26:12;;;;;;;;;;;;;;;6.64;54.18;101799.19;5011837;28;19925;-68
2021/03/19 11:28:49;;;;;;;;;;;;;;;6.67;53.80;101799.47;4996186;28;19921;-71
2021/03/19 11:31:19;;;;;;;;;;;;;;;6.94;53.66;101795.84;5009296;28;19928;-74
2021/03/19 11:33:57;;;;;;;;;;;;;;;7.08;52.30;101789.63;5011576;28;20257;-70
2021/03/19 11:36:25;;;;;;;;;;;;;;;7.06;51.83;101793.75;5011222;28;19955;-68
2021/03/19 11:39:13;;;;;;;;;;;;;;;6.99;53.07;101787.66;5024516;28;19920;-65
2021/03/19 11:41:43;;;;;;;;;;;;;;;7.05;53.39;101795.66;5073145;28;19921;-70
2021/03/19 11:44:22;;;;;;;;;;;;;;;7.18;53.91;101799.84;5072809;28;20367;-68
2021/03/19 11:46:57;;;;;;;;;;;;;;;6.98;53.04;101802.44;5039987;28;19929;-64
2021/03/19 11:49:42;;;;;;;;;;;;;;;6.86;52.65;101810.84;5065277;28;20038;-67
2021/03/19 11:52:13;;;;;;;;;;;;;;;6.88;52.66;101802.34;5049848;28;19927;-68
2021/03/19 11:54:40;;;;;;;;;;;;;;;7.16;52.16;101791.06;5072832;28;19928;-63
2021/03/19 11:57:10;;;;;;;;;;;;;;;7.22;50.79;101806.44;5072914;28;20251;-66
2021/03/19 11:59:37;;;;;;;;;;;;;;;7.12;50.75;101837.34;5040108;28;19927;-65
2021/03/19 12:02:39;;;;;;;;;;;;;;;7.23;50.52;101810.81;5055790;28;20043;-68
2021/03/19 12:05:08;;;;;;;;;;;;;;;7.00;50.30;101820.25;5011406;28;19921;-62
2021/03/19 12:07:35;;;;;;;;;;;;;;;7.04;49.28;101826.88;5011369;28;19921;-68
2021/03/19 12:10:16;;;;;;;;;;;;;;;7.08;49.25;101827.97;5017358;28;20388;-64
2021/03/19 12:12:43;;;;;;;;;;;;;;;7.29;49.20;101807.84;5011311;28;19933;-64
2021/03/19 12:15:14;;;;;;;;;;;;;;;7.41;49.36;101818.63;5011563;28;19929;-61
2021/03/19 12:17:41;;;;;;;;;;;;;;;7.27;49.52;101822.91;5012022;28;20303;-67
2021/03/19 12:20:14;;;;;;;;;;;;;;;7.19;49.51;101820.66;4995727;28;19925;-62
2021/03/19 12:22:42;;;;;;;;;;;;;;;7.29;49.42;101826.19;5011732;28;20395;-64
2021/03/19 12:25:23;;;;;;;;;;;;;;;7.25;46.69;101819.63;5011575;28;20372;-63
2021/03/19 12:27:50;;;;;;;;;;;;;;;7.43;46.53;101811.75;5011532;28;19921;-63
2021/03/19 12:30:20;;;;;;;;;;;;;;;7.65;46.71;101804.19;5011539;28;19921;-66
2021/03/19 12:32:48;;;;;;;;;;;;;;;7.58;46.03;101824.75;5011264;28;20031;-61
2021/03/19 12:35:16;;;;;;;;;;;;;;;7.53;46.12;101805.53;5011025;28;19928;-63
2021/03/19 12:37:44;;;;;;;;;;;;;;;7.71;45.46;101819.59;5011272;28;19922;-63
2021/03/19 12:40:11;;;;;;;;;;;;;;;7.62;45.82;101818.44;5083807;28;19927;-63
2021/03/19 12:42:38;;;;;;;;;;;;;;;7.70;46.35;101817.13;5076279;28;19921;-59
2021/03/19 12:45:07;;;;;;;;;;;;;;;7.41;47.42;101824.91;5077066;28;19927;-67
2021/03/19 12:47:34;;;;;;;;;;;;;;;7.34;47.63;101834.47;5058668;28;19925;-63
2021/03/19 12:50:02;;;;;;;;;;;;;;;7.47;47.23;101825.75;5041983;28;19928;-63
2021/03/19 12:52:29;;;;;;;;;;;;;;;7.44;46.39;101818.09;5058994;28;20363;-64
2021/03/19 12:54:56;;;;;;;;;;;;;;;7.34;46.39;101812.56;5059215;28;19921;-66
2021/03/19 12:57:22;;;;;;;;;;;;;;;7.39;46.65;101815.31;5075509;28;19927;-63
2021/03/19 12:59:59;;;;;;;;;;;;;;;7.43;45.42;101822.72;5076650;28;19928;-63
2021/03/19 13:02:26;;;;;;;;;;;;;;;7.50;45.41;101784.09;5076369;28;19927;-63
2021/03/19 13:04:54;;;;;;;;;;;;;;;7.51;45.78;101803.06;5076511;28;20032;-61
2021/03/19 13:07:21;;;;;;;;;;;;;;;7.77;45.72;101796.59;5076236;28;19921;-64
2021/03/19 13:09:48;;;;;;;;;;;;;;;7.59;45.60;101793.47;5059270;28;20389;-61
2021/03/19 13:12:16;;;;;;;;;;;;;;;7.62;45.71;101801.16;5096552;28;19931;-62
2021/03/19 13:14:55;;;;;;;;;;;;;;;7.77;45.45;101798.50;5097020;28;19930;-63
2021/03/19 13:17:22;;;;;;;;;;;;;;;7.95;44.90;101792.50;5096851;28;19927;-64
2021/03/19 13:19:50;;;;;;;;;;;;;;;7.69;44.62;101794.34;5096429;28;20285;-64
2021/03/19 13:22:17;;;;;;;;;;;;;;;7.59;45.18;101793.47;5096580;28;19943;-65
2021/03/19 13:24:44;;;;;;;;;;;;;;;7.86;45.56;101794.16;5096294;28;19924;-65
2021/03/19 13:27:11;;;;;;;;;;;;;;;7.96;45.83;101802.41;5096233;28;19920;-68
2021/03/19 13:29:38;;;;;;;;;;;;;;;8.00;45.60;101806.25;5077891;28;19919;-66
2021/03/19 13:32:08;;;;;;;;;;;;;;;8.11;45.02;101790.66;5078708;28;20266;-63
2021/03/19 13:34:35;;;;;;;;;;;;;;;8.28;44.44;101827.75;5095709;28;20266;-69
2021/03/19 13:37:02;;;;;;;;;;;;;;;8.20;44.96;101827.44;5096106;28;19920;-62
2021/03/19 13:39:30;;;;;;;;;;;;;;;8.08;45.78;101811.22;5095468;28;19920;-68
2021/03/19 13:41:57;;;;;;;;;;;;;;;8.13;44.37;101829.59;5096161;28;19943;-65
2021/03/19 13:44:24;;;;;;;;;;;;;;;8.08;41.58;101815.88;5095758;28;20278;-66
2021/03/19 13:46:51;;;;;;;;;;;;;;;8.03;41.60;101811.22;5096251;28;19920;-65
2021/03/19 13:49:23;;;;;;;;;;;;;;;8.22;41.55;101806.84;5111356;28;20299;-65
2021/03/19 13:51:49;;;;;;;;;;;;;;;8.22;42.18;101814.25;5096215;28;20321;-68
2021/03/19 13:54:16;;;;;;;;;;;;;;;8.36;42.12;101804.44;5095241;28;19920;-64
2021/03/19 13:56:43;;;;;;;;;;;;;;;8.44;43.26;101812.16;5060437;28;19931;-62
2021/03/19 13:59:10;;;;;;;;;;;;;;;8.33;43.60;101810.47;5096075;28;19927;-62
2021/03/19 14:01:36;;;;;;;;;;;;;;;8.36;44.01;101812.69;5078047;28;20302;-62